Time;durP1;ratioP1;P1;durP2;ratioP2;P2;SDS_P1;SDS_P2;PMS_P1;PMS_P2;Temp;Humidity;BMP_temperature;BMP_pressure;BME280_temperature;BME280_humidity;BME280_pressure;Samples;Min_cycle;Max_cycle;Signal;HPM_P1;HPM_P2
2022/11/17 00:01:52;;;;;;;4.55;0.98;;;10.80;99.90;;;;;;4942130;28;20038;-81
2022/11/17 00:04:19;;;;;;;6.47;1.05;;;10.70;99.90;;;;;;4933960;28;20450;-81
2022/11/17 00:06:44;;;;;;;4.45;1.00;;;10.70;99.90;;;;;;4920735;28;20077;-82
2022/11/17 00:09:16;;;;;;;1.98;0.80;;;10.70;99.90;;;;;;4948285;28;20038;-81
2022/11/17 00:14:31;;;;;;;9.07;1.23;;;10.60;99.90;;;;;;4964597;28;20053;-81
2022/11/17 00:17:00;;;;;;;1.38;0.43;;;10.60;99.90;;;;;;4949891;28;20046;-81
2022/11/17 00:22:10;;;;;;;3.97;1.20;;;10.60;99.90;;;;;;4951068;28;20057;-82
2022/11/17 00:24:35;;;;;;;2.58;1.25;;;10.60;99.90;;;;;;4932664;28;20114;-82
2022/11/17 00:27:01;;;;;;;4.35;0.90;;;10.60;99.90;;;;;;4950617;28;20725;-81
2022/11/17 00:29:27;;;;;;;1.55;0.68;;;10.50;99.90;;;;;;4939034;28;20045;-81
2022/11/17 00:34:37;;;;;;;4.53;1.27;;;10.60;99.90;;;;;;4952989;28;20105;-82
2022/11/17 00:37:03;;;;;;;2.60;0.47;;;10.50;99.90;;;;;;4949920;28;20046;-81
2022/11/17 00:39:29;;;;;;;3.60;0.82;;;10.50;99.90;;;;;;4953121;28;20474;-81
2022/11/17 00:41:54;;;;;;;7.25;1.08;;;10.50;99.90;;;;;;4965500;28;20109;-82
2022/11/17 00:44:20;;;;;;;6.05;1.00;;;10.40;99.90;;;;;;4941990;28;20133;-82
2022/11/17 00:46:46;;;;;;;2.67;0.93;;;10.50;99.90;;;;;;4965362;28;20521;-84
2022/11/17 00:49:11;;;;;;;1.67;0.90;;;10.50;99.90;;;;;;4932524;28;20050;-81
2022/11/17 00:51:37;;;;;;;5.75;1.27;;;10.40;99.90;;;;;;4967199;28;20051;-81
2022/11/17 00:54:04;;;;;;;2.70;1.35;;;10.50;99.90;;;;;;4934951;28;20023;-81
2022/11/17 00:56:30;;;;;;;7.47;1.67;;;10.40;99.90;;;;;;4963303;28;20039;-82
2022/11/17 00:58:55;;;;;;;2.90;0.73;;;10.40;99.90;;;;;;4970187;28;20125;-81
2022/11/17 01:01:21;;;;;;;1.73;0.77;;;10.40;99.90;;;;;;4931767;28;20035;-81
2022/11/17 01:03:46;;;;;;;4.03;1.27;;;10.40;99.90;;;;;;4962326;28;20378;-81
2022/11/17 01:06:13;;;;;;;4.32;1.00;;;10.40;99.90;;;;;;4950678;28;20042;-82
2022/11/17 01:08:39;;;;;;;3.20;0.90;;;10.30;99.90;;;;;;4969260;28;20431;-81
2022/11/17 01:11:16;;;;;;;3.22;0.80;;;10.40;99.90;;;;;;4934757;28;20043;-81
2022/11/17 01:13:41;;;;;;;5.05;1.23;;;10.40;99.90;;;;;;4946820;28;20028;-81
2022/11/17 01:16:14;;;;;;;3.22;0.93;;;10.40;99.90;;;;;;4967863;28;20457;-81
2022/11/17 01:18:40;;;;;;;4.03;0.90;;;10.40;99.90;;;;;;4932063;28;20155;-81
2022/11/17 01:21:20;;;;;;;3.63;1.05;;;10.40;99.90;;;;;;4966867;28;20108;-82
2022/11/17 01:23:46;;;;;;;2.10;1.00;;;10.30;99.90;;;;;;4932411;28;20107;-81
2022/11/17 01:26:13;;;;;;;4.00;0.95;;;10.30;99.90;;;;;;4947642;28;20030;-82
2022/11/17 01:28:38;;;;;;;3.97;1.13;;;10.30;99.90;;;;;;4974684;28;20035;-81
2022/11/17 01:31:06;;;;;;;4.82;1.73;;;10.30;99.90;;;;;;4966830;28;20524;-82
2022/11/17 01:33:32;;;;;;;7.43;1.45;;;10.30;99.90;;;;;;4934224;28;20028;-82
2022/11/17 01:36:14;;;;;;;8.02;2.80;;;10.20;99.90;;;;;;4968089;28;20130;-82
2022/11/17 01:38:39;;;;;;;2.60;1.10;;;10.20;99.90;;;;;;4966600;28;20031;-81
2022/11/17 01:41:07;;;;;;;3.42;1.40;;;10.20;99.90;;;;;;4949946;28;20031;-81
2022/11/17 01:43:46;;;;;;;6.15;1.55;;;10.20;99.90;;;;;;4942842;28;20028;-82
2022/11/17 01:46:32;;;;;;;2.78;1.00;;;10.20;99.90;;;;;;4950947;28;20031;-80
2022/11/17 01:49:22;;;;;;;1.95;1.05;;;10.20;99.90;;;;;;4949611;28;20502;-81
2022/11/17 01:51:51;;;;;;;4.40;0.75;;;10.20;99.90;;;;;;4932489;28;20090;-81
2022/11/17 01:54:18;;;;;;;4.38;1.27;;;10.20;99.90;;;;;;4930397;28;20031;-81
2022/11/17 01:56:44;;;;;;;5.25;1.30;;;10.10;99.90;;;;;;4948301;28;20118;-81
2022/11/17 01:59:20;;;;;;;4.90;1.50;;;10.00;99.90;;;;;;4928673;28;20541;-80
2022/11/17 02:01:55;;;;;;;4.25;1.38;;;10.10;99.90;;;;;;4963430;28;20019;-81
2022/11/17 02:04:34;;;;;;;17.70;1.67;;;10.10;99.90;;;;;;4950720;28;20041;-81
2022/11/17 02:07:27;;;;;;;2.05;1.10;;;10.10;99.90;;;;;;4934606;28;20031;-80
2022/11/17 02:09:53;;;;;;;2.78;1.35;;;10.10;99.90;;;;;;4940802;28;20039;-80
2022/11/17 02:12:19;;;;;;;2.30;0.95;;;10.10;99.90;;;;;;4953911;28;20038;-80
2022/11/17 02:14:44;;;;;;;4.30;1.27;;;10.10;99.90;;;;;;4951857;28;20494;-81
2022/11/17 02:17:10;;;;;;;1.27;0.60;;;10.20;99.90;;;;;;4955194;28;20085;-80
2022/11/17 02:19:37;;;;;;;2.53;1.08;;;10.10;99.90;;;;;;4954752;28;20031;-80
2022/11/17 02:22:33;;;;;;;1.90;0.80;;;10.10;99.90;;;;;;4954099;28;20050;-80
2022/11/17 02:25:21;;;;;;;3.55;1.30;;;10.10;99.90;;;;;;4951539;28;20031;-80
2022/11/17 02:28:03;;;;;;;6.03;1.00;;;10.10;99.90;;;;;;4956121;28;20035;-81
2022/11/17 02:30:41;;;;;;;1.40;0.68;;;10.00;99.90;;;;;;4933335;28;20162;-82
2022/11/17 02:33:19;;;;;;;4.20;1.05;;;10.10;99.90;;;;;;4953318;28;20097;-80
2022/11/17 02:36:00;;;;;;;5.15;1.13;;;10.10;99.90;;;;;;4934818;28;20035;-81
2022/11/17 02:38:42;;;;;;;2.28;0.90;;;10.10;99.90;;;;;;4938615;28;20043;-80
2022/11/17 02:41:18;;;;;;;4.65;1.25;;;10.10;99.90;;;;;;4927391;28;20123;-80
2022/11/17 02:44:03;;;;;;;;;;;10.10;99.90;;;;;;4936838;28;20487;-81
2022/11/17 02:46:50;;;;;;;1.80;1.02;;;10.10;99.90;;;;;;4952526;28;20310;-80
2022/11/17 02:49:26;;;;;;;1.15;0.80;;;10.00;99.90;;;;;;4955902;28;20518;-81
2022/11/17 02:51:54;;;;;;;2.53;0.88;;;10.10;99.90;;;;;;4970474;28;20031;-80
2022/11/17 02:54:20;;;;;;;1.50;0.73;;;10.00;99.90;;;;;;4935498;28;20053;-81
2022/11/17 02:56:46;;;;;;;2.63;1.08;;;10.10;99.90;;;;;;4969392;28;20037;-81
2022/11/17 02:59:13;;;;;;;3.55;0.93;;;10.00;99.90;;;;;;4936285;28;20027;-81
2022/11/17 03:01:56;;;;;;;1.55;0.60;;;10.10;99.90;;;;;;4986476;28;20032;-81
2022/11/17 03:04:30;;;;;;;2.70;1.17;;;10.10;99.90;;;;;;4957303;28;20031;-81
2022/11/17 03:07:21;;;;;;;2.70;1.02;;;10.10;99.90;;;;;;4954928;28;20389;-80
2022/11/17 03:09:47;;;;;;;1.30;0.52;;;10.10;99.90;;;;;;4935241;28;20169;-81
2022/11/17 03:12:27;;;;;;;3.65;0.68;;;10.10;99.90;;;;;;4956155;28;20110;-81
2022/11/17 03:15:08;;;;;;;3.90;0.75;;;10.10;99.90;;;;;;4967806;28;20039;-81
2022/11/17 03:17:48;;;;;;;1.05;0.77;;;10.10;99.90;;;;;;4975954;28;20030;-81
2022/11/17 03:20:22;;;;;;;1.17;0.40;;;10.10;99.90;;;;;;4937762;28;20114;-80
2022/11/17 03:22:57;;;;;;;1.20;0.68;;;10.10;99.90;;;;;;4953725;28;20486;-80
2022/11/17 03:25:23;;;;;;;1.95;0.45;;;10.10;99.90;;;;;;4952054;28;20031;-81
2022/11/17 03:27:51;;;;;;;0.95;0.47;;;10.20;99.90;;;;;;4933555;28;20031;-81
2022/11/17 03:30:18;;;;;;;3.45;1.20;;;10.10;99.90;;;;;;4953810;28;20035;-80
2022/11/17 03:32:47;;;;;;;2.67;0.82;;;10.10;99.90;;;;;;4966825;28;20045;-81
2022/11/17 03:35:16;;;;;;;2.28;1.05;;;10.10;99.90;;;;;;4953112;28;20096;-81
2022/11/17 03:37:44;;;;;;;3.33;0.70;;;10.10;99.90;;;;;;4951413;28;20652;-81
2022/11/17 03:40:11;;;;;;;0.93;0.70;;;10.20;99.90;;;;;;4952770;28;20850;-81
2022/11/17 03:42:39;;;;;;;1.05;0.70;;;10.10;99.90;;;;;;4952155;28;20090;-81
2022/11/17 03:45:17;;;;;;;1.95;0.80;;;10.10;99.90;;;;;;4937965;28;20038;-81
2022/11/17 03:47:43;;;;;;;1.92;0.68;;;10.10;99.90;;;;;;4949887;28;20372;-83
2022/11/17 03:50:10;;;;;;;2.83;0.63;;;10.10;99.90;;;;;;4952949;28;20037;-80
2022/11/17 03:52:36;;;;;;;1.65;0.57;;;10.10;99.90;;;;;;4948178;28;20038;-81
2022/11/17 03:55:02;;;;;;;3.80;1.40;;;10.10;99.90;;;;;;4951339;28;20091;-80
2022/11/17 03:57:35;;;;;;;1.40;0.50;;;10.00;99.90;;;;;;4951371;28;20058;-80
2022/11/17 04:00:03;;;;;;;2.35;0.82;;;9.90;99.90;;;;;;4944681;28;20062;-80
2022/11/17 04:02:29;;;;;;;3.38;1.00;;;10.00;99.90;;;;;;4952653;28;20027;-80
2022/11/17 04:05:06;;;;;;;1.85;0.93;;;10.00;99.90;;;;;;4952814;28;20084;-81
2022/11/17 04:07:33;;;;;;;1.42;0.68;;;10.00;99.90;;;;;;4951085;28;20034;-81
2022/11/17 04:09:58;;;;;;;3.13;0.70;;;10.00;99.90;;;;;;4931527;28;20043;-80
2022/11/17 04:17:55;;;;;;;10.73;0.85;;;10.00;99.90;;;;;;4977448;28;20030;-81
2022/11/17 04:20:21;;;;;;;2.38;0.73;;;10.00;99.90;;;;;;4935693;28;20034;-81
2022/11/17 04:23:05;;;;;;;3.42;0.85;;;10.00;99.90;;;;;;4967167;28;20039;-81
2022/11/17 04:28:35;;;;;;;1.88;0.93;;;10.00;99.90;;;;;;4934038;28;20046;-80
2022/11/17 04:31:15;;;;;;;4.68;1.63;;;9.90;99.90;;;;;;4951217;28;20027;-81
2022/11/17 04:33:51;;;;;;;1.85;0.75;;;10.00;99.90;;;;;;4942773;28;20045;-82
2022/11/17 04:36:24;;;;;;;1.80;0.68;;;9.90;99.90;;;;;;4951267;28;20502;-81
2022/11/17 04:38:51;;;;;;;2.10;0.68;;;9.80;99.90;;;;;;4929734;28;20376;-81
2022/11/17 04:44:01;;;;;;;1.40;0.52;;;9.80;99.90;;;;;;4966498;28;20565;-83
2022/11/17 04:46:28;;;;;;;5.00;0.82;;;9.80;99.90;;;;;;4945252;28;20141;-81
2022/11/17 04:48:54;;;;;;;0.82;0.68;;;9.80;99.90;;;;;;4934263;28;20034;-81
2022/11/17 04:51:20;;;;;;;3.95;1.10;;;9.80;99.90;;;;;;4934196;28;20200;-81
2022/11/17 04:53:45;;;;;;;1.27;0.80;;;9.80;99.90;;;;;;4976571;28;20394;-81
2022/11/17 04:56:12;;;;;;;6.47;1.10;;;9.80;99.90;;;;;;4944395;28;20038;-82
2022/11/17 04:58:37;;;;;;;4.47;0.98;;;9.90;99.90;;;;;;4933892;28;20162;-81
2022/11/17 05:01:12;;;;;;;4.95;0.90;;;9.70;99.90;;;;;;4951384;28;20501;-82
2022/11/17 05:03:47;;;;;;;3.75;0.73;;;9.90;99.90;;;;;;4931778;28;20093;-82
2022/11/17 05:06:17;;;;;;;2.78;1.00;;;9.80;99.90;;;;;;4934128;28;20488;-81
2022/11/17 05:08:43;;;;;;;2.08;1.08;;;9.80;99.90;;;;;;4942259;28;20371;-81
2022/11/17 05:13:53;;;;;;;3.97;1.02;;;9.70;99.90;;;;;;4963202;28;20554;-81
2022/11/17 05:19:04;;;;;;;3.80;0.80;;;9.70;99.90;;;;;;4966600;28;20054;-82
2022/11/17 05:21:30;;;;;;;5.18;1.63;;;9.70;99.90;;;;;;4942946;28;20042;-81
2022/11/17 05:23:55;;;;;;;3.85;1.10;;;9.70;99.90;;;;;;4950378;28;20034;-81
2022/11/17 05:26:28;;;;;;;1.48;0.80;;;9.70;99.90;;;;;;4950282;28;20458;-81
2022/11/17 05:28:55;;;;;;;1.00;0.70;;;9.60;99.90;;;;;;4927737;28;20039;-81
2022/11/17 05:31:21;;;;;;;3.47;1.25;;;9.70;99.90;;;;;;4931665;28;20109;-82
2022/11/17 05:33:46;;;;;;;4.75;1.52;;;9.60;99.90;;;;;;4949716;28;20035;-82
2022/11/17 05:36:12;;;;;;;1.98;0.80;;;9.80;99.90;;;;;;4948168;28;20035;-81
2022/11/17 05:38:37;;;;;;;1.67;0.60;;;9.80;99.90;;;;;;4923535;28;20023;-81
2022/11/17 05:41:03;;;;;;;1.88;1.02;;;9.80;99.90;;;;;;4933333;28;20058;-81
2022/11/17 05:43:29;;;;;;;2.90;0.80;;;9.90;99.90;;;;;;4916265;28;20038;-81
2022/11/17 05:45:54;;;;;;;2.13;0.70;;;9.90;99.90;;;;;;4964992;28;20469;-82
2022/11/17 05:48:20;;;;;;;4.35;1.45;;;9.90;99.90;;;;;;4945933;28;20435;-81
2022/11/17 05:50:45;;;;;;;5.50;1.35;;;9.90;99.90;;;;;;4949477;28;20035;-81
2022/11/17 05:53:11;;;;;;;4.28;1.30;;;9.90;99.90;;;;;;4948350;28;20034;-82
2022/11/17 05:55:36;;;;;;;0.77;0.60;;;9.90;99.90;;;;;;4944739;28;20110;-82
2022/11/17 05:58:11;;;;;;;1.50;0.88;;;9.90;99.90;;;;;;4933291;28;20035;-81
2022/11/17 06:00:37;;;;;;;5.28;0.70;;;9.90;99.90;;;;;;4960696;28;20091;-81
2022/11/17 06:03:06;;;;;;;1.88;1.33;;;9.90;99.90;;;;;;4947650;28;20031;-81
2022/11/17 06:05:32;;;;;;;2.50;1.30;;;9.90;99.90;;;;;;4934135;28;20047;-81
2022/11/17 06:07:58;;;;;;;3.55;1.00;;;9.90;99.90;;;;;;4964549;28;20038;-80
2022/11/17 06:10:23;;;;;;;1.55;1.05;;;9.90;99.90;;;;;;4944856;28;20042;-82
2022/11/17 06:12:49;;;;;;;5.20;1.40;;;9.90;99.90;;;;;;4934216;28;20435;-81
2022/11/17 06:15:14;;;;;;;2.55;1.00;;;10.00;99.90;;;;;;4956825;28;20106;-81
2022/11/17 06:17:42;;;;;;;3.95;1.05;;;9.90;99.90;;;;;;4975428;28;20035;-81
2022/11/17 06:20:32;;;;;;;2.33;1.00;;;9.80;99.90;;;;;;4951533;28;20038;-81
2022/11/17 06:23:00;;;;;;;4.47;1.30;;;9.90;99.90;;;;;;4936189;28;20998;-81
2022/11/17 06:25:27;;;;;;;4.28;1.70;;;9.90;99.90;;;;;;4960913;28;20440;-81
2022/11/17 06:27:53;;;;;;;1.17;0.88;;;9.90;99.90;;;;;;4963947;28;20041;-81
2022/11/17 06:30:18;;;;;;;1.67;1.05;;;9.80;99.90;;;;;;4928901;28;20031;-81
2022/11/17 06:32:44;;;;;;;1.23;0.63;;;10.00;99.90;;;;;;4930479;28;20035;-80
2022/11/17 06:35:11;;;;;;;2.40;1.08;;;9.90;99.90;;;;;;4948732;28;20069;-82
2022/11/17 06:37:36;;;;;;;4.15;1.20;;;10.00;99.90;;;;;;4977780;28;20122;-82
2022/11/17 06:40:02;;;;;;;4.90;1.25;;;10.00;99.90;;;;;;4949324;28;20565;-82
2022/11/17 06:45:12;;;;;;;1.98;0.82;;;10.00;99.90;;;;;;4976310;28;20037;-82
2022/11/17 06:47:38;;;;;;;5.22;1.58;;;10.00;99.90;;;;;;4949133;28;20109;-83
2022/11/17 06:50:03;;;;;;;5.18;1.23;;;10.00;99.90;;;;;;4947073;28;20034;-83
2022/11/17 06:52:29;;;;;;;2.55;0.90;;;10.00;99.90;;;;;;4965479;28;20038;-82
2022/11/17 06:54:54;;;;;;;4.95;1.00;;;10.00;99.90;;;;;;4949856;28;20034;-83
2022/11/17 06:57:20;;;;;;;2.58;0.80;;;10.00;99.90;;;;;;4968827;28;20023;-83
2022/11/17 06:59:46;;;;;;;2.95;0.80;;;10.00;99.90;;;;;;4943752;28;20023;-82
2022/11/17 07:02:11;;;;;;;3.10;1.13;;;10.00;99.90;;;;;;4952722;28;20042;-84
2022/11/17 07:04:37;;;;;;;2.50;0.93;;;9.90;99.90;;;;;;4928521;28;20521;-84
2022/11/17 07:07:03;;;;;;;2.55;0.88;;;10.00;99.90;;;;;;4952546;28;21075;-84
2022/11/17 07:09:29;;;;;;;2.38;0.90;;;10.00;99.90;;;;;;4939811;28;20039;-83
2022/11/17 07:11:55;;;;;;;1.75;0.90;;;10.00;99.90;;;;;;4976493;28;20134;-84
2022/11/17 07:14:20;;;;;;;6.63;1.33;;;10.00;99.90;;;;;;4945276;28;20031;-83
2022/11/17 07:16:46;;;;;;;3.55;1.10;;;10.00;99.90;;;;;;4951264;28;20027;-83
2022/11/17 07:19:12;;;;;;;4.45;1.00;;;10.00;99.90;;;;;;4933953;28;20082;-84
2022/11/17 07:21:37;;;;;;;6.00;0.85;;;10.00;99.90;;;;;;4954309;28;20043;-83
2022/11/17 07:24:04;;;;;;;2.92;0.90;;;9.90;99.90;;;;;;4975954;28;20043;-83
2022/11/17 07:26:30;;;;;;;2.85;1.15;;;10.00;99.90;;;;;;4935194;28;21406;-83
2022/11/17 07:28:57;;;;;;;4.70;0.80;;;10.00;99.90;;;;;;4922011;28;20038;-83
2022/11/17 07:31:23;;;;;;;3.35;0.80;;;9.90;99.90;;;;;;4949578;28;20038;-83
2022/11/17 07:33:49;;;;;;;3.05;0.85;;;9.90;99.90;;;;;;4934189;28;20026;-84
2022/11/17 07:36:15;;;;;;;1.70;0.77;;;10.00;99.90;;;;;;4950928;28;20467;-83
2022/11/17 07:38:40;;;;;;;2.95;0.80;;;10.00;99.90;;;;;;4919714;28;20043;-84
2022/11/17 07:41:06;;;;;;;2.90;0.60;;;10.00;99.90;;;;;;4937081;28;20038;-83
2022/11/17 07:43:32;;;;;;;1.25;0.50;;;10.00;99.90;;;;;;4950268;28;20042;-83
2022/11/17 07:46:00;;;;;;;7.50;1.05;;;10.00;99.90;;;;;;4963653;28;20039;-84
2022/11/17 07:48:25;;;;;;;1.70;0.63;;;10.00;99.90;;;;;;4961743;28;20537;-83
2022/11/17 07:50:51;;;;;;;1.85;1.05;;;10.10;99.90;;;;;;4949734;28;20126;-83
2022/11/17 07:53:17;;;;;;;3.10;0.90;;;10.10;99.90;;;;;;4947567;28;20130;-83
2022/11/17 07:55:43;;;;;;;3.63;0.88;;;10.10;99.90;;;;;;4952594;28;20035;-83
2022/11/17 07:58:09;;;;;;;1.33;0.55;;;10.10;99.90;;;;;;4954411;28;20045;-82
2022/11/17 08:00:35;;;;;;;7.03;0.80;;;10.20;99.90;;;;;;4953524;28;20170;-83
2022/11/17 08:03:02;;;;;;;2.60;0.85;;;10.20;99.90;;;;;;4952883;28;20070;-83
2022/11/17 08:05:29;;;;;;;2.92;1.15;;;10.10;99.90;;;;;;4933444;28;20414;-83
2022/11/17 08:07:57;;;;;;;4.55;0.70;;;10.10;99.90;;;;;;4963365;28;20090;-84
2022/11/17 08:10:22;;;;;;;2.08;0.95;;;10.10;99.90;;;;;;4946851;28;20510;-82
2022/11/17 08:12:51;;;;;;;8.73;1.70;;;10.10;99.90;;;;;;4950056;28;20058;-83
2022/11/17 08:15:17;;;;;;;1.88;0.73;;;10.10;99.90;;;;;;4951410;28;20077;-84
2022/11/17 08:17:43;;;;;;;5.57;1.13;;;10.10;99.90;;;;;;4963156;28;20121;-84
2022/11/17 08:20:11;;;;;;;3.55;0.75;;;10.10;99.90;;;;;;4976859;28;20101;-83
2022/11/17 08:22:36;;;;;;;2.65;0.88;;;10.10;99.90;;;;;;4940647;28;20089;-83
2022/11/17 08:25:04;;;;;;;3.45;1.55;;;10.20;99.90;;;;;;4949185;28;20110;-82
2022/11/17 08:27:30;;;;;;;5.03;0.77;;;10.00;99.90;;;;;;4944054;28;20039;-83
2022/11/17 08:29:56;;;;;;;3.08;0.75;;;10.00;99.90;;;;;;4946370;28;20395;-83
2022/11/17 08:32:21;;;;;;;2.58;0.60;;;10.00;99.90;;;;;;4932677;28;20030;-82
2022/11/17 08:34:47;;;;;;;2.15;0.50;;;9.90;99.90;;;;;;4941491;28;20063;-83
2022/11/17 08:37:12;;;;;;;4.55;0.57;;;10.00;99.90;;;;;;4931898;28;20109;-83
2022/11/17 08:39:38;;;;;;;3.40;0.80;;;10.00;99.90;;;;;;4936620;28;20413;-83
2022/11/17 08:42:04;;;;;;;1.25;0.45;;;10.00;99.90;;;;;;4971027;28;20061;-83
2022/11/17 08:44:30;;;;;;;1.85;0.70;;;10.10;99.90;;;;;;4943571;28;20121;-84
2022/11/17 08:46:55;;;;;;;0.50;0.40;;;10.10;99.90;;;;;;4912707;28;20043;-84
2022/11/17 08:49:21;;;;;;;1.75;0.60;;;10.10;99.90;;;;;;4928288;28;20390;-84
2022/11/17 08:51:46;;;;;;;2.03;0.50;;;10.10;99.90;;;;;;4944441;28;20042;-84
2022/11/17 08:54:12;;;;;;;3.03;0.73;;;10.10;99.90;;;;;;4964294;28;20382;-84
2022/11/17 08:56:37;;;;;;;3.78;0.80;;;10.20;99.90;;;;;;4941655;28;20035;-84
2022/11/17 08:59:03;;;;;;;4.45;1.33;;;10.20;99.90;;;;;;4928226;28;20134;-84
2022/11/17 09:01:29;;;;;;;2.80;0.70;;;10.20;99.90;;;;;;4931860;28;20067;-84
2022/11/17 09:03:54;;;;;;;3.35;1.00;;;10.20;99.90;;;;;;4941271;28;20041;-84
2022/11/17 09:06:20;;;;;;;2.78;0.60;;;10.20;99.90;;;;;;4911144;28;20045;-84
2022/11/17 09:08:45;;;;;;;1.55;0.93;;;10.20;99.90;;;;;;4965208;28;20034;-84
2022/11/17 09:11:11;;;;;;;1.40;0.65;;;10.20;99.90;;;;;;4924609;28;20034;-85
2022/11/17 09:13:37;;;;;;;3.17;0.70;;;10.30;99.90;;;;;;4942515;28;20390;-84
2022/11/17 09:16:04;;;;;;;1.15;0.50;;;10.30;99.90;;;;;;4970939;28;20035;-84
2022/11/17 09:18:30;;;;;;;3.15;0.85;;;10.30;99.90;;;;;;4941852;28;20035;-84
2022/11/17 09:21:03;;;;;;;1.30;0.70;;;10.30;99.90;;;;;;4945296;28;20406;-84
2022/11/17 09:23:28;;;;;;;3.53;0.80;;;10.30;99.90;;;;;;4918454;28;20550;-84
2022/11/17 09:25:54;;;;;;;3.05;0.80;;;10.30;99.90;;;;;;4931139;28;20122;-85
2022/11/17 09:28:20;;;;;;;2.50;0.95;;;10.30;99.90;;;;;;4943531;28;20031;-88
2022/11/17 09:30:45;;;;;;;2.75;1.17;;;10.40;99.90;;;;;;4946375;28;20391;-86
2022/11/17 09:33:11;;;;;;;1.58;0.95;;;10.40;99.90;;;;;;4945496;28;20067;-86
2022/11/17 09:35:36;;;;;;;3.00;0.90;;;10.50;99.90;;;;;;4929035;28;20121;-86
2022/11/17 09:38:02;;;;;;;3.45;0.88;;;10.60;99.90;;;;;;4923038;28;20401;-86
2022/11/17 09:40:27;;;;;;;3.05;0.85;;;10.50;99.90;;;;;;4931188;28;20058;-87
2022/11/17 09:42:53;;;;;;;2.42;0.93;;;10.70;99.90;;;;;;4947651;28;20035;-86
2022/11/17 09:45:25;;;;;;;3.35;0.98;;;10.70;99.90;;;;;;4933356;28;20110;-85
2022/11/17 09:48:12;;;;;;;3.13;1.05;;;10.70;99.90;;;;;;4979719;28;20109;-86
2022/11/17 09:50:38;;;;;;;;;;;10.70;99.90;;;;;;4941210;28;20039;-86
2022/11/17 09:53:29;;;;;;;4.78;1.10;;;10.80;99.90;;;;;;4949129;28;19929;-86
2022/11/17 09:55:56;;;;;;;1.63;0.80;;;10.80;99.90;;;;;;4948789;28;20050;-86
2022/11/17 09:58:45;;;;;;;6.25;0.77;;;10.80;99.90;;;;;;4932688;28;20030;-86
2022/11/17 10:01:12;;;;;;;2.40;0.40;;;10.90;99.90;;;;;;4951196;28;20037;-86
2022/11/17 10:03:39;;;;;;;3.60;0.45;;;10.90;99.90;;;;;;4949510;28;20039;-85
2022/11/17 10:06:09;;;;;;;3.30;0.73;;;10.90;99.90;;;;;;4928109;28;20035;-85
2022/11/17 10:08:39;;;;;;;1.95;0.40;;;10.90;99.90;;;;;;4934462;28;20397;-85
2022/11/17 10:11:30;;;;;;;4.75;0.82;;;11.00;99.90;;;;;;4962227;28;20495;-85
2022/11/17 10:14:03;;;;;;;0.77;0.40;;;11.00;99.90;;;;;;4924083;28;20035;-86
2022/11/17 10:16:29;;;;;;;1.95;0.40;;;11.00;99.90;;;;;;4932530;28;20062;-86
2022/11/17 10:18:54;;;;;;;1.77;0.40;;;11.10;99.90;;;;;;4960355;28;20114;-86
2022/11/17 10:21:20;;;;;;;2.05;0.40;;;11.10;99.90;;;;;;4942517;28;20106;-85
2022/11/17 10:23:55;;;;;;;4.03;0.50;;;11.20;99.90;;;;;;4945245;28;20478;-85
2022/11/17 10:26:21;;;;;;;0.98;0.45;;;11.20;99.90;;;;;;4929659;28;20486;-85
2022/11/17 10:28:47;;;;;;;3.65;0.60;;;11.40;99.90;;;;;;4949465;28;20039;-85
2022/11/17 10:31:15;;;;;;;2.50;0.45;;;11.30;99.90;;;;;;4931822;28;20057;-85
2022/11/17 10:33:45;;;;;;;0.68;0.43;;;11.60;99.90;;;;;;4966786;28;20027;-85
2022/11/17 10:36:29;;;;;;;0.80;0.30;;;11.60;99.90;;;;;;4932485;28;20054;-85
2022/11/17 10:38:57;;;;;;;3.15;0.50;;;11.70;99.90;;;;;;4936435;28;20035;-85
2022/11/17 10:41:26;;;;;;;4.75;0.60;;;11.70;99.90;;;;;;4939541;28;20126;-86
2022/11/17 10:43:56;;;;;;;2.75;0.70;;;11.80;99.90;;;;;;4947661;28;20039;-85
2022/11/17 10:46:22;;;;;;;1.30;0.55;;;11.80;99.90;;;;;;4953927;28;20031;-85
2022/11/17 10:48:54;;;;;;;0.65;0.40;;;11.90;99.90;;;;;;4952867;28;20035;-86
2022/11/17 10:51:20;;;;;;;1.00;0.60;;;11.70;99.90;;;;;;4953482;28;20065;-86
2022/11/17 10:54:25;;;;;;;2.15;0.47;;;11.90;99.90;;;;;;4951706;28;20065;-85
2022/11/17 10:56:53;;;;;;;1.33;0.43;;;11.90;99.90;;;;;;4949358;28;20055;-85
2022/11/17 10:59:28;;;;;;;1.50;0.60;;;11.90;99.90;;;;;;4951366;28;20038;-86
2022/11/17 11:01:54;;;;;;;1.55;0.57;;;11.90;99.90;;;;;;4922660;28;20055;-86
2022/11/17 11:04:30;;;;;;;3.88;0.70;;;11.90;99.90;;;;;;4957001;28;20094;-86
2022/11/17 11:07:05;;;;;;;1.80;0.50;;;12.00;99.90;;;;;;4959013;28;20028;-86
2022/11/17 11:09:30;;;;;;;1.17;0.40;;;12.10;99.90;;;;;;4959348;28;20035;-86
2022/11/17 11:11:58;;;;;;;1.20;0.40;;;12.10;99.90;;;;;;4970859;28;20051;-86
2022/11/17 11:14:39;;;;;;;2.85;0.38;;;12.10;99.90;;;;;;4955903;28;20035;-85
2022/11/17 11:17:14;;;;;;;2.92;0.63;;;12.10;99.90;;;;;;4959186;28;20046;-85
2022/11/17 11:19:52;;;;;;;1.15;0.40;;;12.20;99.90;;;;;;4955227;28;20023;-86
2022/11/17 11:22:29;;;;;;;4.35;0.40;;;12.20;99.90;;;;;;4955795;28;20486;-85
2022/11/17 11:25:05;;;;;;;1.88;0.40;;;12.20;99.90;;;;;;4972566;28;20058;-85
2022/11/17 11:27:37;;;;;;;0.82;0.45;;;12.10;99.90;;;;;;4935630;28;20039;-85
2022/11/17 11:30:10;;;;;;;0.57;0.22;;;12.30;99.90;;;;;;4972244;28;20051;-85
2022/11/17 11:33:03;;;;;;;1.80;0.30;;;12.30;99.90;;;;;;4940347;28;20031;-85
2022/11/17 11:35:40;;;;;;;1.50;0.40;;;12.30;99.90;;;;;;4969619;28;20053;-85
2022/11/17 11:38:25;;;;;;;1.10;0.38;;;12.40;99.90;;;;;;4970580;28;20074;-90
2022/11/17 11:41:09;;;;;;;2.20;0.40;;;12.50;99.90;;;;;;4955666;28;20063;-84
2022/11/17 11:43:47;;;;;;;2.70;0.32;;;12.60;99.90;;;;;;4989993;28;20030;-85
2022/11/17 11:46:45;;;;;;;0.47;0.30;;;12.70;99.90;;;;;;4974004;28;20430;-85
2022/11/17 11:49:31;;;;;;;0.93;0.32;;;12.80;99.90;;;;;;4946195;28;20513;-85
2022/11/17 11:51:57;;;;;;;0.88;0.30;;;12.80;99.90;;;;;;4958209;28;20114;-85
2022/11/17 11:54:28;;;;;;;2.85;0.40;;;12.70;99.90;;;;;;4952939;28;20114;-84
2022/11/17 11:56:53;;;;;;;2.80;0.77;;;12.60;99.90;;;;;;4956838;28;20035;-84
2022/11/17 11:59:49;;;;;;;2.92;0.30;;;12.60;99.90;;;;;;4942221;28;20126;-85
2022/11/17 12:02:30;;;;;;;1.75;0.40;;;12.70;99.90;;;;;;4931903;28;20023;-84
2022/11/17 12:05:01;;;;;;;2.33;0.35;;;12.60;99.90;;;;;;4959087;28;20042;-85
2022/11/17 12:07:49;;;;;;;0.50;0.40;;;12.60;99.90;;;;;;4976204;28;20487;-85
2022/11/17 12:10:34;;;;;;;2.95;0.43;;;12.50;99.90;;;;;;4926085;28;20113;-84
2022/11/17 12:13:00;;;;;;;1.42;0.30;;;12.50;99.90;;;;;;4955290;28;20043;-85
2022/11/17 12:15:25;;;;;;;0.38;0.30;;;12.40;99.90;;;;;;4948294;28;20043;-84
2022/11/17 12:17:51;;;;;;;0.40;0.30;;;12.50;99.90;;;;;;4949423;28;20082;-85
2022/11/17 12:20:35;;;;;;;2.30;0.22;;;12.40;99.90;;;;;;4953135;28;20089;-85
2022/11/17 12:23:06;;;;;;;1.38;0.30;;;12.30;99.90;;;;;;4952472;28;20042;-86
2022/11/17 12:25:33;;;;;;;4.10;0.43;;;12.20;99.90;;;;;;4963513;28;20081;-85
2022/11/17 12:27:58;;;;;;;0.35;0.20;;;12.10;99.90;;;;;;4951459;28;20027;-86
2022/11/17 12:30:32;;;;;;;0.98;0.25;;;12.20;99.90;;;;;;4941826;28;20557;-85
2022/11/17 12:33:05;;;;;;;2.38;0.45;;;12.20;99.90;;;;;;4947692;28;20034;-85
2022/11/17 12:35:31;;;;;;;1.30;0.40;;;12.20;99.90;;;;;;4936122;28;20031;-84
2022/11/17 12:38:20;;;;;;;1.20;0.35;;;12.20;99.90;;;;;;4933463;28;20042;-85
2022/11/17 12:40:49;;;;;;;4.95;0.43;;;12.30;99.90;;;;;;4934975;28;20106;-85
2022/11/17 12:43:15;;;;;;;2.58;0.30;;;12.30;99.90;;;;;;4961306;28;20680;-85
2022/11/17 12:45:58;;;;;;;0.68;0.28;;;12.20;99.90;;;;;;4953197;28;20035;-85
2022/11/17 12:48:25;;;;;;;2.00;0.40;;;12.20;99.90;;;;;;4946749;28;20038;-85
2022/11/17 12:51:11;;;;;;;1.92;0.45;;;12.10;99.90;;;;;;4962440;28;20138;-85
2022/11/17 12:54:13;;;;;;;1.80;0.35;;;12.10;99.90;;;;;;4945222;28;20098;-85
2022/11/17 12:57:02;;;;;;;0.50;0.10;;;12.10;99.90;;;;;;4926197;28;20482;-85
2022/11/17 12:59:35;;;;;;;0.90;0.28;;;12.00;99.90;;;;;;4982020;28;20065;-84
2022/11/17 13:02:19;;;;;;;0.20;0.20;;;11.90;99.90;;;;;;4931566;28;20037;-85
2022/11/17 13:04:49;;;;;;;3.72;0.68;;;11.80;99.90;;;;;;4946020;28;20398;-86
2022/11/17 13:07:25;;;;;;;4.10;0.50;;;11.90;99.90;;;;;;4965711;28;20036;-85
2022/11/17 13:09:52;;;;;;;0.95;0.40;;;11.80;99.90;;;;;;4959251;28;20086;-85
2022/11/17 13:12:36;;;;;;;0.82;0.40;;;11.80;99.90;;;;;;4958605;28;20402;-85
2022/11/17 13:15:03;;;;;;;2.45;0.35;;;11.70;99.90;;;;;;4932004;28;20130;-85
2022/11/17 13:17:31;;;;;;;4.07;0.50;;;11.70;99.90;;;;;;4960611;28;20035;-85
2022/11/17 13:20:33;;;;;;;3.80;0.85;;;11.70;99.90;;;;;;4951375;28;20043;-86
2022/11/17 13:23:05;;;;;;;3.05;0.40;;;11.60;99.90;;;;;;4963331;28;20037;-86
2022/11/17 13:25:31;;;;;;;0.88;0.50;;;11.60;99.90;;;;;;4963066;28;20034;-86
2022/11/17 13:27:56;;;;;;;2.55;0.52;;;11.50;99.90;;;;;;4943087;28;20054;-85
2022/11/17 13:30:24;;;;;;;1.35;0.73;;;11.50;99.90;;;;;;4942144;28;20023;-86
2022/11/17 13:32:49;;;;;;;1.25;0.52;;;11.50;99.90;;;;;;4940438;28;20094;-86